Time;durP1;ratioP1;P1;durP2;ratioP2;P2;SDS_P1;SDS_P2;PMS_P1;PMS_P2;Temp;Humidity;BMP_temperature;BMP_pressure;BME280_temperature;BME280_humidity;BME280_pressure;Samples;Min_cycle;Max_cycle;Signal;HPM_P1;HPM_P2
2023/03/15 00:02:07;;;;;;;6.33;1.43;;;;;;;;;;5048139;28;20307;-61
2023/03/15 00:04:34;;;;;;;5.07;1.00;;;;;;;;;;5049435;28;20045;-60
2023/03/15 00:07:00;;;;;;;5.60;1.57;;;;;;;;;;5049308;28;20425;-61
2023/03/15 00:09:26;;;;;;;3.03;1.07;;;;;;;;;;5050941;28;20353;-61
2023/03/15 00:11:55;;;;;;;5.10;1.10;;;;;;;;;;5048866;28;20060;-61
2023/03/15 00:14:22;;;;;;;4.67;1.47;;;;;;;;;;5048740;28;20553;-61
2023/03/15 00:16:48;;;;;;;3.80;1.40;;;;;;;;;;5049316;28;20302;-61
2023/03/15 00:19:16;;;;;;;5.53;1.87;;;;;;;;;;5049260;28;20799;-61
2023/03/15 00:21:43;;;;;;;5.00;1.30;;;;;;;;;;5047887;28;20292;-60
2023/03/15 00:24:12;;;;;;;4.17;1.60;;;;;;;;;;5048161;28;20318;-61
2023/03/15 00:26:38;;;;;;;5.20;1.87;;;;;;;;;;5048743;28;20298;-61
2023/03/15 00:29:04;;;;;;;8.47;2.00;;;;;;;;;;5048497;28;20296;-61
2023/03/15 00:31:30;;;;;;;13.13;1.40;;;;;;;;;;5047653;28;20311;-60
2023/03/15 00:33:56;;;;;;;11.47;3.50;;;;;;;;;;5048934;28;20283;-61
2023/03/15 00:36:23;;;;;;;7.63;1.67;;;;;;;;;;5049004;28;20475;-60
2023/03/15 00:38:50;;;;;;;9.63;1.90;;;;;;;;;;5048429;28;20296;-61
2023/03/15 00:41:17;;;;;;;6.70;1.33;;;;;;;;;;5048453;28;20048;-60
2023/03/15 00:43:44;;;;;;;5.13;1.63;;;;;;;;;;5048037;28;20317;-61
2023/03/15 00:46:10;;;;;;;11.03;2.10;;;;;;;;;;5049549;28;20420;-61
2023/03/15 00:48:36;;;;;;;7.77;1.60;;;;;;;;;;5048499;28;20175;-61
2023/03/15 00:51:06;;;;;;;6.90;2.13;;;;;;;;;;5048329;28;20495;-61
2023/03/15 00:53:32;;;;;;;3.80;1.50;;;;;;;;;;5049197;28;20279;-60
2023/03/15 00:55:59;;;;;;;8.93;1.70;;;;;;;;;;5048212;28;20052;-61
2023/03/15 00:58:25;;;;;;;6.27;1.23;;;;;;;;;;5048584;28;20294;-61
2023/03/15 01:00:51;;;;;;;11.90;3.83;;;;;;;;;;5048400;28;20718;-60
2023/03/15 01:03:17;;;;;;;6.63;1.53;;;;;;;;;;5047603;28;20052;-61
2023/03/15 01:05:43;;;;;;;8.10;1.47;;;;;;;;;;5047765;28;20839;-61
2023/03/15 01:08:10;;;;;;;6.53;1.33;;;;;;;;;;5047639;28;20049;-60
2023/03/15 01:10:36;;;;;;;9.23;1.73;;;;;;;;;;5047727;28;20450;-61
2023/03/15 01:13:02;;;;;;;7.60;2.23;;;;;;;;;;5048903;28;20299;-61
2023/03/15 01:15:28;;;;;;;9.20;1.73;;;;;;;;;;5047826;28;20106;-61
2023/03/15 01:17:55;;;;;;;3.63;0.90;;;;;;;;;;5048256;28;20279;-61
2023/03/15 01:20:21;;;;;;;12.50;1.93;;;;;;;;;;5046783;28;20041;-60
2023/03/15 01:22:47;;;;;;;9.13;1.63;;;;;;;;;;5046964;28;20322;-61
2023/03/15 01:25:14;;;;;;;8.10;1.93;;;;;;;;;;5047788;28;20275;-61
2023/03/15 01:27:40;;;;;;;5.53;1.20;;;;;;;;;;5045920;28;20053;-60
2023/03/15 01:30:06;;;;;;;8.23;1.60;;;;;;;;;;5047292;28;20354;-61
2023/03/15 01:32:32;;;;;;;8.90;1.80;;;;;;;;;;5047346;28;20832;-61
2023/03/15 01:34:58;;;;;;;7.20;1.30;;;;;;;;;;5046583;28;20781;-61
2023/03/15 01:37:26;;;;;;;5.27;1.30;;;;;;;;;;5047029;28;20776;-61
2023/03/15 01:39:52;;;;;;;5.13;1.13;;;;;;;;;;5047731;28;20291;-61
2023/03/15 01:42:18;;;;;;;8.83;1.97;;;;;;;;;;5047495;28;20055;-61
2023/03/15 01:44:49;;;;;;;6.00;1.20;;;;;;;;;;5046612;28;20300;-61
2023/03/15 01:47:15;;;;;;;7.37;1.27;;;;;;;;;;5047544;28;20856;-60
2023/03/15 01:49:42;;;;;;;14.63;3.23;;;;;;;;;;5046918;28;20307;-60
2023/03/15 01:52:14;;;;;;;10.83;1.70;;;;;;;;;;5047873;28;20119;-60
2023/03/15 01:54:47;;;;;;;9.17;1.30;;;;;;;;;;5047729;28;20338;-60
2023/03/15 01:57:16;;;;;;;9.73;1.37;;;;;;;;;;5048756;28;20280;-61
2023/03/15 01:59:47;;;;;;;9.33;1.57;;;;;;;;;;5048557;28;20295;-60
2023/03/15 02:02:13;;;;;;;6.83;1.43;;;;;;;;;;5063049;28;20894;-60
2023/03/15 02:04:45;;;;;;;14.17;2.43;;;;;;;;;;5047478;28;20307;-61
2023/03/15 02:07:12;;;;;;;12.37;1.80;;;;;;;;;;5047146;28;20302;-62
2023/03/15 02:09:45;;;;;;;13.80;1.67;;;;;;;;;;5046911;28;20302;-62
2023/03/15 02:12:11;;;;;;;3.85;1.40;;;;;;;;;;5047891;28;20657;-62
2023/03/15 02:14:38;;;;;;;9.10;1.80;;;;;;;;;;5048258;28;20045;-60
2023/03/15 02:17:04;;;;;;;10.93;1.80;;;;;;;;;;5047931;28;20314;-61
2023/03/15 02:19:33;;;;;;;9.43;2.00;;;;;;;;;;5047442;28;20287;-61
2023/03/15 02:22:22;;;;;;;9.20;1.97;;;;;;;;;;5046744;28;20710;-61
2023/03/15 02:25:06;;;;;;;9.47;1.60;;;;;;;;;;5047359;28;20374;-61
2023/03/15 02:27:33;;;;;;;11.48;1.90;;;;;;;;;;5050955;28;20669;-61
2023/03/15 02:30:02;;;;;;;10.20;1.83;;;;;;;;;;5051449;28;20060;-61
2023/03/15 02:32:29;;;;;;;8.17;1.87;;;;;;;;;;5048475;28;20303;-61
2023/03/15 02:34:55;;;;;;;6.33;2.13;;;;;;;;;;5051418;28;20290;-60
2023/03/15 02:37:21;;;;;;;11.40;1.40;;;;;;;;;;5051844;28;20310;-60
2023/03/15 02:39:47;;;;;;;10.20;1.60;;;;;;;;;;5051280;28;20301;-61
2023/03/15 02:42:13;;;;;;;12.30;1.87;;;;;;;;;;5051713;28;20284;-62
2023/03/15 02:44:42;;;;;;;14.73;1.80;;;;;;;;;;5050844;28;20353;-61
2023/03/15 02:47:13;;;;;;;10.97;1.43;;;;;;;;;;5051711;28;20287;-61
2023/03/15 02:49:41;;;;;;;9.57;1.80;;;;;;;;;;5051526;28;20357;-61
2023/03/15 02:52:07;;;;;;;12.17;1.80;;;;;;;;;;5050979;28;20414;-61
2023/03/15 02:54:33;;;;;;;15.33;1.80;;;;;;;;;;5051545;28;20292;-61
2023/03/15 02:57:03;;;;;;;5.13;1.60;;;;;;;;;;5051061;28;20313;-62
2023/03/15 02:59:29;;;;;;;13.83;1.67;;;;;;;;;;5051612;28;20347;-62
2023/03/15 03:01:55;;;;;;;12.30;1.60;;;;;;;;;;5050251;28;20349;-62
2023/03/15 03:04:21;;;;;;;15.17;2.17;;;;;;;;;;5050752;28;20296;-62
2023/03/15 03:06:47;;;;;;;11.23;1.60;;;;;;;;;;5050978;28;20291;-62
2023/03/15 03:09:13;;;;;;;9.07;1.97;;;;;;;;;;5050237;28;20048;-62
2023/03/15 03:11:39;;;;;;;11.47;1.40;;;;;;;;;;5050487;28;20450;-62
2023/03/15 03:14:05;;;;;;;14.90;2.93;;;;;;;;;;5051106;28;20287;-62
2023/03/15 03:16:31;;;;;;;10.23;1.40;;;;;;;;;;5048535;28;20087;-61
2023/03/15 03:18:57;;;;;;;6.80;1.37;;;;;;;;;;5051104;28;20280;-61
2023/03/15 03:21:23;;;;;;;8.33;1.17;;;;;;;;;;5051307;28;20443;-62
2023/03/15 03:23:49;;;;;;;15.90;1.60;;;;;;;;;;5050745;28;20479;-62
2023/03/15 03:26:17;;;;;;;10.90;1.73;;;;;;;;;;5051057;28;20056;-62
2023/03/15 03:28:44;;;;;;;15.23;2.70;;;;;;;;;;5051502;28;20283;-62
2023/03/15 03:31:24;;;;;;;8.63;1.70;;;;;;;;;;5050745;28;20307;-61
2023/03/15 03:33:50;;;;;;;9.80;1.80;;;;;;;;;;5050822;28;20704;-62
2023/03/15 03:36:16;;;;;;;7.53;1.20;;;;;;;;;;5050161;28;20307;-61
2023/03/15 03:38:43;;;;;;;9.27;1.70;;;;;;;;;;5050699;28;20295;-61
2023/03/15 03:41:10;;;;;;;6.83;1.80;;;;;;;;;;5050224;28;20294;-62
2023/03/15 03:43:36;;;;;;;13.83;2.33;;;;;;;;;;5050765;28;20299;-62
2023/03/15 03:46:02;;;;;;;8.87;1.43;;;;;;;;;;5050463;28;20796;-62
2023/03/15 03:48:29;;;;;;;11.43;1.63;;;;;;;;;;5050523;28;20288;-62
2023/03/15 03:50:56;;;;;;;15.40;1.80;;;;;;;;;;5050359;28;20673;-62
2023/03/15 03:53:22;;;;;;;13.90;2.23;;;;;;;;;;5050138;28;20295;-62
2023/03/15 03:55:48;;;;;;;7.90;2.10;;;;;;;;;;5050479;28;20378;-62
2023/03/15 03:58:14;;;;;;;7.93;1.43;;;;;;;;;;5050418;28;20673;-59
2023/03/15 04:00:43;;;;;;;15.30;2.20;;;;;;;;;;5049698;28;20303;-61
2023/03/15 04:03:09;;;;;;;14.70;2.57;;;;;;;;;;5049524;28;20347;-62
2023/03/15 04:05:35;;;;;;;14.40;2.03;;;;;;;;;;5050313;28;21078;-62
2023/03/15 04:08:01;;;;;;;6.50;1.73;;;;;;;;;;5050047;28;20382;-62
2023/03/15 04:10:27;;;;;;;8.20;1.40;;;;;;;;;;5049932;28;20790;-61
2023/03/15 04:12:54;;;;;;;11.80;2.00;;;;;;;;;;5050027;28;20283;-62
2023/03/15 04:15:23;;;;;;;10.10;2.00;;;;;;;;;;5049469;28;20457;-61
2023/03/15 04:17:54;;;;;;;10.37;1.67;;;;;;;;;;5049241;28;20291;-62
2023/03/15 04:20:21;;;;;;;5.63;1.73;;;;;;;;;;5050153;28;20650;-62
2023/03/15 04:22:51;;;;;;;11.53;1.80;;;;;;;;;;5049505;28;20295;-62
2023/03/15 04:25:17;;;;;;;10.43;1.87;;;;;;;;;;5049273;28;20294;-62
2023/03/15 04:27:43;;;;;;;15.77;2.30;;;;;;;;;;5049568;28;20318;-62
2023/03/15 04:30:10;;;;;;;11.23;2.47;;;;;;;;;;5049166;28;20295;-61
2023/03/15 04:32:36;;;;;;;11.40;1.83;;;;;;;;;;5049330;28;20352;-62
2023/03/15 04:35:03;;;;;;;12.43;2.50;;;;;;;;;;5048321;28;20303;-62
2023/03/15 04:37:31;;;;;;;16.03;2.70;;;;;;;;;;5049262;28;20291;-62
2023/03/15 04:39:57;;;;;;;10.73;2.23;;;;;;;;;;5048960;28;20288;-62
2023/03/15 04:42:24;;;;;;;8.83;2.13;;;;;;;;;;5049601;28;20654;-62
2023/03/15 04:44:51;;;;;;;12.00;1.90;;;;;;;;;;5049394;28;20283;-62
2023/03/15 04:47:17;;;;;;;9.00;2.80;;;;;;;;;;5049292;28;20661;-62
2023/03/15 04:49:43;;;;;;;9.77;1.30;;;;;;;;;;5048788;28;20299;-62
2023/03/15 04:52:09;;;;;;;12.30;2.07;;;;;;;;;;5048063;28;20322;-62
2023/03/15 04:54:35;;;;;;;27.03;3.83;;;;;;;;;;5048096;28;20812;-61
2023/03/15 04:57:01;;;;;;;11.00;2.30;;;;;;;;;;5049644;28;20682;-61
2023/03/15 04:59:27;;;;;;;7.03;1.50;;;;;;;;;;5049034;28;20661;-62
2023/03/15 05:01:53;;;;;;;7.20;1.70;;;;;;;;;;5047309;28;20296;-61
2023/03/15 05:04:20;;;;;;;8.37;1.60;;;;;;;;;;5048646;28;20287;-61
2023/03/15 05:06:46;;;;;;;9.73;1.80;;;;;;;;;;5048645;28;20287;-61
2023/03/15 05:09:17;;;;;;;16.57;2.50;;;;;;;;;;5048345;28;20291;-62
2023/03/15 05:11:43;;;;;;;11.03;2.10;;;;;;;;;;5048955;28;20356;-61
2023/03/15 05:14:09;;;;;;;11.90;1.47;;;;;;;;;;5045777;28;20323;-62
2023/03/15 05:16:36;;;;;;;12.03;2.20;;;;;;;;;;5048485;28;20280;-62
2023/03/15 05:19:02;;;;;;;6.93;1.60;;;;;;;;;;5048163;28;20801;-63
2023/03/15 05:21:28;;;;;;;11.33;2.57;;;;;;;;;;5047221;28;20295;-62
2023/03/15 05:23:54;;;;;;;10.83;2.47;;;;;;;;;;5048671;28;20288;-61
2023/03/15 05:26:20;;;;;;;8.60;1.90;;;;;;;;;;5046649;28;20311;-62
2023/03/15 05:28:46;;;;;;;10.37;2.23;;;;;;;;;;5048542;28;20287;-62
2023/03/15 05:31:12;;;;;;;12.30;2.90;;;;;;;;;;5048190;28;20361;-61
2023/03/15 05:33:45;;;;;;;12.83;2.20;;;;;;;;;;5047069;28;20820;-62
2023/03/15 05:36:14;;;;;;;12.60;3.00;;;;;;;;;;5047904;28;20299;-62
2023/03/15 05:38:40;;;;;;;5.93;1.83;;;;;;;;;;5048262;28;20679;-65
2023/03/15 05:41:07;;;;;;;15.50;2.13;;;;;;;;;;5046705;28;20311;-62
2023/03/15 05:43:33;;;;;;;14.70;2.80;;;;;;;;;;5048204;28;20284;-62
2023/03/15 05:45:59;;;;;;;12.73;1.97;;;;;;;;;;5048226;28;20303;-62
2023/03/15 05:48:26;;;;;;;15.20;1.80;;;;;;;;;;5048212;28;20352;-62
2023/03/15 05:50:52;;;;;;;12.40;1.93;;;;;;;;;;5048150;28;20390;-62
2023/03/15 05:53:18;;;;;;;8.10;1.80;;;;;;;;;;5047892;28;20280;-62
2023/03/15 05:55:44;;;;;;;13.30;2.00;;;;;;;;;;5047561;28;20310;-61
2023/03/15 05:58:11;;;;;;;9.27;2.10;;;;;;;;;;5048009;28;20136;-61
2023/03/15 06:00:37;;;;;;;9.67;2.20;;;;;;;;;;5040547;28;20044;-62
2023/03/15 06:03:03;;;;;;;10.43;2.47;;;;;;;;;;5036365;28;20276;-62
2023/03/15 06:05:29;;;;;;;8.40;1.97;;;;;;;;;;5044293;28;20538;-63
2023/03/15 06:07:55;;;;;;;12.60;1.63;;;;;;;;;;5031930;28;20165;-61
2023/03/15 06:10:21;;;;;;;9.93;1.50;;;;;;;;;;5039861;28;20347;-61
2023/03/15 06:12:49;;;;;;;8.37;1.97;;;;;;;;;;5042699;28;20052;-60
2023/03/15 06:15:15;;;;;;;10.20;1.40;;;;;;;;;;5043244;28;20287;-60
2023/03/15 06:17:41;;;;;;;7.37;1.50;;;;;;;;;;5047149;28;20306;-60
2023/03/15 06:20:07;;;;;;;12.00;3.63;;;;;;;;;;5036322;28;20283;-61
2023/03/15 06:22:33;;;;;;;8.07;1.80;;;;;;;;;;5037878;28;20045;-61
2023/03/15 06:24:59;;;;;;;11.10;1.90;;;;;;;;;;5037917;28;20377;-62
2023/03/15 06:27:25;;;;;;;7.30;1.13;;;;;;;;;;5040681;28;20619;-62
2023/03/15 06:29:52;;;;;;;13.90;3.40;;;;;;;;;;5041599;28;20333;-62
2023/03/15 06:32:18;;;;;;;12.63;1.87;;;;;;;;;;5040225;28;20315;-62
2023/03/15 06:34:44;;;;;;;10.47;3.10;;;;;;;;;;5038577;28;20288;-62
2023/03/15 06:37:12;;;;;;;8.33;1.47;;;;;;;;;;5038028;28;20785;-62
2023/03/15 06:39:39;;;;;;;8.90;1.63;;;;;;;;;;5038003;28;20045;-61
2023/03/15 06:42:07;;;;;;;13.47;1.40;;;;;;;;;;5039887;28;20341;-61
2023/03/15 06:44:33;;;;;;;4.50;1.43;;;;;;;;;;5037474;28;20295;-61
2023/03/15 06:46:59;;;;;;;16.60;1.77;;;;;;;;;;5036012;28;20276;-61
2023/03/15 06:49:25;;;;;;;13.40;1.73;;;;;;;;;;5038855;28;20295;-61
2023/03/15 06:51:51;;;;;;;9.27;1.73;;;;;;;;;;5039662;28;20319;-61
2023/03/15 06:54:17;;;;;;;8.60;1.57;;;;;;;;;;5037373;28;20284;-61
2023/03/15 06:56:44;;;;;;;5.67;1.43;;;;;;;;;;5037627;28;20055;-62
2023/03/15 06:59:10;;;;;;;11.70;2.50;;;;;;;;;;5037550;28;20284;-62
2023/03/15 07:01:36;;;;;;;4.93;1.87;;;;;;;;;;5037464;28;21055;-62
2023/03/15 07:04:02;;;;;;;10.23;1.60;;;;;;;;;;5035105;28;20276;-61
2023/03/15 07:06:28;;;;;;;6.43;1.40;;;;;;;;;;5033489;28;20283;-61
2023/03/15 07:08:54;;;;;;;11.27;1.33;;;;;;;;;;5028781;28;20298;-61
2023/03/15 07:11:20;;;;;;;12.63;1.67;;;;;;;;;;5039915;28;20377;-61
2023/03/15 07:13:46;;;;;;;10.53;1.43;;;;;;;;;;5042341;28;20735;-62
2023/03/15 07:16:12;;;;;;;17.70;2.03;;;;;;;;;;5038072;28;20804;-61
2023/03/15 07:18:38;;;;;;;10.53;1.40;;;;;;;;;;5038039;28;20296;-61
2023/03/15 07:21:06;;;;;;;9.83;1.17;;;;;;;;;;5037812;28;20833;-61
2023/03/15 07:23:33;;;;;;;6.83;1.57;;;;;;;;;;5041065;28;20798;-61
2023/03/15 07:25:59;;;;;;;8.37;1.40;;;;;;;;;;5036900;28;20308;-61
2023/03/15 07:28:26;;;;;;;9.40;1.40;;;;;;;;;;5035653;28;20318;-62
2023/03/15 07:31:00;;;;;;;28.80;4.07;;;;;;;;;;5049097;28;20309;-62
2023/03/15 07:33:27;;;;;;;6.87;1.23;;;;;;;;;;5038941;28;20284;-62
2023/03/15 07:35:53;;;;;;;8.37;1.40;;;;;;;;;;5034872;28;20285;-61
2023/03/15 07:38:20;;;;;;;5.67;1.40;;;;;;;;;;5031461;28;20324;-60
2023/03/15 07:40:46;;;;;;;9.43;2.50;;;;;;;;;;5046976;28;20300;-60
2023/03/15 07:43:12;;;;;;;6.50;1.20;;;;;;;;;;5043412;28;20388;-60
2023/03/15 07:45:38;;;;;;;9.17;1.90;;;;;;;;;;5052252;28;20144;-60
2023/03/15 07:48:04;;;;;;;9.10;1.43;;;;;;;;;;5044035;28;20821;-60
2023/03/15 07:50:31;;;;;;;13.37;2.80;;;;;;;;;;5036349;28;20288;-60
2023/03/15 07:52:57;;;;;;;7.57;1.67;;;;;;;;;;5032445;28;20407;-60
2023/03/15 07:55:24;;;;;;;9.80;1.23;;;;;;;;;;5049273;28;20796;-60
2023/03/15 07:57:50;;;;;;;8.97;1.37;;;;;;;;;;5049166;28;20349;-60
2023/03/15 08:00:17;;;;;;;10.07;1.50;;;;;;;;;;5048798;28;20293;-61
2023/03/15 08:02:43;;;;;;;6.60;1.13;;;;;;;;;;5039146;28;20299;-61
2023/03/15 08:05:09;;;;;;;9.30;2.17;;;;;;;;;;5030127;28;20725;-60
2023/03/15 08:07:36;;;;;;;5.97;1.33;;;;;;;;;;5037388;28;20102;-61
2023/03/15 08:10:05;;;;;;;5.83;1.63;;;;;;;;;;5049313;28;20033;-61
2023/03/15 08:12:32;;;;;;;6.80;1.50;;;;;;;;;;5049898;28;20329;-61
2023/03/15 08:14:58;;;;;;;6.23;1.10;;;;;;;;;;5049503;28;20041;-61
2023/03/15 08:17:24;;;;;;;7.63;1.33;;;;;;;;;;5050211;28;20295;-61
2023/03/15 08:19:50;;;;;;;6.70;1.40;;;;;;;;;;5050332;28;20040;-61
2023/03/15 08:22:16;;;;;;;9.50;1.83;;;;;;;;;;5049666;28;20041;-61
2023/03/15 08:24:44;;;;;;;6.37;1.63;;;;;;;;;;5048820;28;20056;-61
2023/03/15 08:27:10;;;;;;;9.77;1.47;;;;;;;;;;5049680;28;20522;-61
2023/03/15 08:29:36;;;;;;;9.13;1.90;;;;;;;;;;5049786;28;20090;-61
2023/03/15 08:32:02;;;;;;;12.00;2.07;;;;;;;;;;5047064;28;20045;-61
2023/03/15 08:34:28;;;;;;;12.27;1.60;;;;;;;;;;5050056;28;20049;-61
2023/03/15 08:36:54;;;;;;;11.53;3.87;;;;;;;;;;5049959;28;20163;-61
2023/03/15 08:39:22;;;;;;;10.73;2.70;;;;;;;;;;5048840;28;20132;-61
2023/03/15 08:41:50;;;;;;;7.03;2.70;;;;;;;;;;5041456;28;20057;-61
2023/03/15 08:44:16;;;;;;;15.00;3.60;;;;;;;;;;5048529;28;20110;-61
2023/03/15 08:46:42;;;;;;;9.60;2.00;;;;;;;;;;5048450;28;20045;-61
2023/03/15 08:49:08;;;;;;;12.17;2.33;;;;;;;;;;5047949;28;20125;-61
2023/03/15 08:51:34;;;;;;;9.93;1.67;;;;;;;;;;5046274;28;20514;-61
2023/03/15 08:54:03;;;;;;;11.10;1.70;;;;;;;;;;5046232;28;20044;-61
2023/03/15 08:56:31;;;;;;;5.00;1.03;;;;;;;;;;5049669;28;20055;-61
2023/03/15 08:58:57;;;;;;;13.70;3.13;;;;;;;;;;5048476;28;20041;-61
2023/03/15 09:01:23;;;;;;;13.23;2.03;;;;;;;;;;5049314;28;20049;-61
2023/03/15 09:03:50;;;;;;;5.43;1.43;;;;;;;;;;5049176;28;20045;-61
2023/03/15 09:06:16;;;;;;;8.13;1.10;;;;;;;;;;5049540;28;20052;-61
2023/03/15 09:08:42;;;;;;;9.63;1.40;;;;;;;;;;5049713;28;20178;-61
2023/03/15 09:11:08;;;;;;;7.10;0.90;;;;;;;;;;5048545;28;20426;-61
2023/03/15 09:13:35;;;;;;;9.60;1.73;;;;;;;;;;5049183;28;20059;-61
2023/03/15 09:16:02;;;;;;;10.00;1.63;;;;;;;;;;5049478;28;20120;-61
2023/03/15 09:18:28;;;;;;;9.70;1.63;;;;;;;;;;5041945;28;20064;-63
2023/03/15 09:20:54;;;;;;;10.60;1.50;;;;;;;;;;5039210;28;20041;-62
2023/03/15 09:23:20;;;;;;;10.20;1.40;;;;;;;;;;5038751;28;20045;-61
2023/03/15 09:25:47;;;;;;;4.23;1.03;;;;;;;;;;5039865;28;20052;-61
2023/03/15 09:28:13;;;;;;;5.13;1.00;;;;;;;;;;5040307;28;20092;-61
2023/03/15 09:30:40;;;;;;;7.17;1.00;;;;;;;;;;5039637;28;20045;-61
2023/03/15 09:33:06;;;;;;;4.10;1.20;;;;;;;;;;5041922;28;20045;-61
2023/03/15 09:35:32;;;;;;;5.90;1.00;;;;;;;;;;5040080;28;20052;-60
2023/03/15 09:37:58;;;;;;;7.13;1.10;;;;;;;;;;5042940;28;20037;-61
2023/03/15 09:40:32;;;;;;;5.13;1.00;;;;;;;;;;5040069;28;20048;-60
2023/03/15 09:43:12;;;;;;;5.43;1.30;;;;;;;;;;5037719;28;20037;-61
2023/03/15 09:45:45;;;;;;;5.50;1.40;;;;;;;;;;5039459;28;20436;-61
2023/03/15 09:48:36;;;;;;;5.00;1.03;;;;;;;;;;5038905;28;20045;-60
2023/03/15 09:51:05;;;;;;;6.50;0.87;;;;;;;;;;5038111;28;20498;-60
2023/03/15 09:53:37;;;;;;;7.13;1.67;;;;;;;;;;5046188;28;20083;-60
2023/03/15 09:56:05;;;;;;;5.30;1.63;;;;;;;;;;5045460;28;20411;-60
2023/03/15 09:58:33;;;;;;;5.33;1.20;;;;;;;;;;5047993;28;20048;-60
2023/03/15 10:01:00;;;;;;;5.43;1.30;;;;;;;;;;5046865;28;20122;-60
2023/03/15 10:03:30;;;;;;;4.20;1.57;;;;;;;;;;5046886;28;20044;-60
2023/03/15 10:05:57;;;;;;;7.80;1.17;;;;;;;;;;5048043;28;20037;-60
2023/03/15 10:08:24;;;;;;;8.30;1.30;;;;;;;;;;5047653;28;20103;-60
2023/03/15 10:10:53;;;;;;;5.50;1.50;;;;;;;;;;5048286;28;20098;-60
2023/03/15 10:13:35;;;;;;;9.50;1.50;;;;;;;;;;5047852;28;20049;-60
2023/03/15 10:16:04;;;;;;;5.73;1.30;;;;;;;;;;5045038;28;20046;-60
2023/03/15 10:18:42;;;;;;;6.70;2.67;;;;;;;;;;5047601;28;20045;-60
2023/03/15 10:21:16;;;;;;;6.43;1.47;;;;;;;;;;5045713;28;20053;-60
2023/03/15 10:23:48;;;;;;;9.07;2.10;;;;;;;;;;5045764;28;20076;-61
2023/03/15 10:26:17;;;;;;;5.40;1.50;;;;;;;;;;5046212;28;20529;-60
2023/03/15 10:28:44;;;;;;;10.10;2.23;;;;;;;;;;5047144;28;20057;-60
2023/03/15 10:31:15;;;;;;;11.03;1.50;;;;;;;;;;5045889;28;20064;-61
2023/03/15 10:33:42;;;;;;;8.13;1.73;;;;;;;;;;5046688;28;20053;-60
2023/03/15 10:36:15;;;;;;;4.93;1.30;;;;;;;;;;5047491;28;20041;-61
2023/03/15 10:38:41;;;;;;;5.88;1.05;;;;;;;;;;5047109;28;20045;-60
2023/03/15 10:41:08;;;;;;;6.20;1.20;;;;;;;;;;5048278;28;20053;-60
2023/03/15 10:43:38;;;;;;;5.30;1.23;;;;;;;;;;5048236;28;20056;-60
2023/03/15 10:46:07;;;;;;;6.30;1.20;;;;;;;;;;5047386;28;20088;-60
2023/03/15 10:48:37;;;;;;;4.80;1.43;;;;;;;;;;5051929;28;20053;-61
2023/03/15 10:51:05;;;;;;;8.00;1.50;;;;;;;;;;5052016;28;20045;-60
2023/03/15 10:53:31;;;;;;;5.43;0.93;;;;;;;;;;5051942;28;20462;-60
2023/03/15 10:55:59;;;;;;;2.90;0.70;;;;;;;;;;5051835;28;20052;-60
2023/03/15 10:58:26;;;;;;;5.17;1.17;;;;;;;;;;5052213;28;20132;-60
2023/03/15 11:01:00;;;;;;;4.83;1.17;;;;;;;;;;5051880;28;20052;-60
2023/03/15 11:03:27;;;;;;;12.23;1.67;;;;;;;;;;5051590;28;20051;-61
2023/03/15 11:05:54;;;;;;;6.47;1.50;;;;;;;;;;5051819;28;20045;-60
2023/03/15 11:08:21;;;;;;;7.53;2.33;;;;;;;;;;5051861;28;20096;-60
2023/03/15 11:10:55;;;;;;;4.30;1.00;;;;;;;;;;5051829;28;20892;-60
2023/03/15 11:13:22;;;;;;;4.50;1.23;;;;;;;;;;5051467;28;20506;-60
2023/03/15 11:16:03;;;;;;;10.33;1.33;;;;;;;;;;5051602;28;20143;-60
2023/03/15 11:18:36;;;;;;;8.37;2.10;;;;;;;;;;5051542;28;20049;-60
2023/03/15 11:21:08;;;;;;;5.63;1.37;;;;;;;;;;5051408;28;20060;-60
2023/03/15 11:23:36;;;;;;;8.50;1.40;;;;;;;;;;5051524;28;20492;-60
2023/03/15 11:26:03;;;;;;;7.03;1.20;;;;;;;;;;5051065;28;20053;-60
2023/03/15 11:28:30;;;;;;;6.17;1.47;;;;;;;;;;5051362;28;20045;-60
2023/03/15 11:31:00;;;;;;;7.47;1.50;;;;;;;;;;5050937;28;20041;-60
2023/03/15 11:33:34;;;;;;;5.23;1.53;;;;;;;;;;5051499;28;20049;-60
2023/03/15 11:36:03;;;;;;;5.37;1.10;;;;;;;;;;5051404;28;20143;-60
2023/03/15 11:38:37;;;;;;;7.20;1.60;;;;;;;;;;5049841;28;20037;-60
2023/03/15 11:41:12;;;;;;;5.33;1.50;;;;;;;;;;5050526;28;20055;-60
2023/03/15 11:43:48;;;;;;;4.97;1.17;;;;;;;;;;5050780;28;20098;-61
2023/03/15 11:46:20;;;;;;;6.33;1.40;;;;;;;;;;5050778;28;20049;-61
2023/03/15 11:48:48;;;;;;;5.22;1.40;;;;;;;;;;5050883;28;20041;-61
2023/03/15 11:51:14;;;;;;;6.03;1.43;;;;;;;;;;5050589;28;20049;-61
2023/03/15 11:53:45;;;;;;;6.87;1.20;;;;;;;;;;5051109;28;20045;-60
2023/03/15 11:56:25;;;;;;;7.07;1.53;;;;;;;;;;5050981;28;20045;-61
2023/03/15 11:59:05;;;;;;;3.63;1.30;;;;;;;;;;5050660;28;20098;-61
2023/03/15 12:01:33;;;;;;;11.33;1.70;;;;;;;;;;5050019;28;20052;-61
2023/03/15 12:04:18;;;;;;;7.10;1.87;;;;;;;;;;5049010;28;20502;-61
2023/03/15 12:06:44;;;;;;;8.50;1.77;;;;;;;;;;5050762;28;20041;-60
2023/03/15 12:09:28;;;;;;;6.20;1.70;;;;;;;;;;5050365;28;20045;-60
2023/03/15 12:11:57;;;;;;;5.97;2.03;;;;;;;;;;5050697;28;20052;-61
2023/03/15 12:14:34;;;;;;;5.13;1.10;;;;;;;;;;5049984;28;20037;-61
2023/03/15 12:17:18;;;;;;;5.97;1.50;;;;;;;;;;5050376;28;20102;-61
2023/03/15 12:19:44;;;;;;;6.27;1.30;;;;;;;;;;5050640;28;20048;-60
2023/03/15 12:22:15;;;;;;;7.93;1.23;;;;;;;;;;5050376;28;20049;-60
2023/03/15 12:24:43;;;;;;;6.87;1.90;;;;;;;;;;5050486;28;20060;-60
2023/03/15 12:27:19;;;;;;;4.13;1.13;;;;;;;;;;5050122;28;20057;-61
2023/03/15 12:29:46;;;;;;;5.40;1.17;;;;;;;;;;5050193;28;20059;-61
2023/03/15 12:32:16;;;;;;;5.57;1.57;;;;;;;;;;5050302;28;20049;-61
2023/03/15 12:34:50;;;;;;;7.40;1.47;;;;;;;;;;5050265;28;20448;-61
2023/03/15 12:37:24;;;;;;;5.80;1.40;;;;;;;;;;5050317;28;20057;-61
2023/03/15 12:40:01;;;;;;;5.67;1.50;;;;;;;;;;5050034;28;20056;-61
2023/03/15 12:42:30;;;;;;;5.27;1.17;;;;;;;;;;5049984;28;20041;-61
2023/03/15 12:45:14;;;;;;;6.50;1.20;;;;;;;;;;5050035;28;20075;-61
2023/03/15 12:47:50;;;;;;;8.43;1.20;;;;;;;;;;5049676;28;20565;-61
2023/03/15 12:50:34;;;;;;;7.23;2.03;;;;;;;;;;5049549;28;20080;-61
2023/03/15 12:53:01;;;;;;;3.37;0.93;;;;;;;;;;5050136;28;20045;-61
2023/03/15 12:55:28;;;;;;;5.03;1.23;;;;;;;;;;5049972;28;20842;-61
2023/03/15 12:57:56;;;;;;;6.03;1.20;;;;;;;;;;5049177;28;20049;-61
2023/03/15 13:00:26;;;;;;;6.23;1.37;;;;;;;;;;5049764;28;20056;-61
2023/03/15 13:03:18;;;;;;;5.57;1.13;;;;;;;;;;5049362;28;20044;-61
2023/03/15 13:06:03;;;;;;;5.37;1.20;;;;;;;;;;5049362;28;20045;-61
2023/03/15 13:08:58;;;;;;;3.87;1.07;;;;;;;;;;5049386;28;20106;-61
2023/03/15 13:11:33;;;;;;;5.23;1.20;;;;;;;;;;5047926;28;20495;-61
2023/03/15 13:14:05;;;;;;;6.30;1.20;;;;;;;;;;5049128;28;20123;-61
2023/03/15 13:16:38;;;;;;;5.57;1.40;;;;;;;;;;5049291;28;20460;-62
2023/03/15 13:19:16;;;;;;;4.22;1.42;;;;;;;;;;5049290;28;20045;-62
2023/03/15 13:22:00;;;;;;;4.30;1.13;;;;;;;;;;5048981;28;20045;-62
2023/03/15 13:24:30;;;;;;;4.30;1.20;;;;;;;;;;5049414;28;20041;-61
2023/03/15 13:27:00;;;;;;;10.77;1.43;;;;;;;;;;5048850;28;20114;-61
2023/03/15 13:29:28;;;;;;;4.87;1.60;;;;;;;;;;5049166;28;20087;-61
2023/03/15 13:32:02;;;;;;;5.23;1.60;;;;;;;;;;5048784;28;20060;-61
2023/03/15 13:34:29;;;;;;;5.70;1.93;;;;;;;;;;5048082;28;20163;-61
2023/03/15 13:37:01;;;;;;;3.97;1.20;;;;;;;;;;5048146;28;20133;-61
2023/03/15 13:39:33;;;;;;;6.73;1.10;;;;;;;;;;5042886;28;20563;-62
2023/03/15 13:42:01;;;;;;;5.00;1.52;;;;;;;;;;5039363;28;20396;-61
2023/03/15 13:44:28;;;;;;;6.30;2.10;;;;;;;;;;5040102;28;20081;-61
2023/03/15 13:46:54;;;;;;;5.80;1.53;;;;;;;;;;5033099;28;20041;-61
2023/03/15 13:49:21;;;;;;;5.63;1.87;;;;;;;;;;5033022;28;20045;-61
2023/03/15 13:51:48;;;;;;;5.20;1.20;;;;;;;;;;5034663;28;20143;-61
2023/03/15 13:54:29;;;;;;;4.23;1.10;;;;;;;;;;5042113;28;20045;-61
2023/03/15 13:57:05;;;;;;;3.17;1.10;;;;;;;;;;5036579;28;20041;-61
2023/03/15 13:59:41;;;;;;;3.40;0.80;;;;;;;;;;5043291;28;20121;-61
2023/03/15 14:02:12;;;;;;;3.93;0.90;;;;;;;;;;5056770;28;20599;-61
2023/03/15 14:04:38;;;;;;;4.40;1.00;;;;;;;;;;5039699;28;20036;-61
2023/03/15 14:07:18;;;;;;;3.90;1.00;;;;;;;;;;5042730;28;20123;-62
2023/03/15 14:09:45;;;;;;;4.70;1.40;;;;;;;;;;5035491;28;20049;-61
2023/03/15 14:12:21;;;;;;;3.20;0.60;;;;;;;;;;5029866;28;20140;-61
2023/03/15 14:14:52;;;;;;;5.47;1.13;;;;;;;;;;5039932;28;20777;-61
2023/03/15 14:17:25;;;;;;;5.03;0.93;;;;;;;;;;5042713;28;20052;-61
2023/03/15 14:19:56;;;;;;;5.23;1.23;;;;;;;;;;5038433;28;20041;-61
2023/03/15 14:22:22;;;;;;;5.73;0.97;;;;;;;;;;5040247;28;20467;-62
2023/03/15 14:24:50;;;;;;;4.83;1.27;;;;;;;;;;5044052;28;20499;-61
2023/03/15 14:27:20;;;;;;;4.53;1.23;;;;;;;;;;5042328;28;20577;-61
2023/03/15 14:29:48;;;;;;;4.40;1.07;;;;;;;;;;5041683;28;20045;-62
2023/03/15 14:32:33;;;;;;;5.70;1.20;;;;;;;;;;5039165;28;20411;-61
2023/03/15 14:35:04;;;;;;;4.23;1.10;;;;;;;;;;5041929;28;20107;-61
2023/03/15 14:37:41;;;;;;;6.03;1.20;;;;;;;;;;5042255;28;20072;-61
2023/03/15 14:40:11;;;;;;;5.17;1.40;;;;;;;;;;5040323;28;20041;-61
2023/03/15 14:42:38;;;;;;;6.23;1.60;;;;;;;;;;5042676;28;20041;-61
2023/03/15 14:45:04;;;;;;;3.97;1.07;;;;;;;;;;5040622;28;20037;-61
2023/03/15 14:47:30;;;;;;;5.93;1.30;;;;;;;;;;5041734;28;20049;-62